METAR Data
IDs: Format: Raw Decoded Include TAF

Data at: 2319 UTC 25 Oct 2021

EYSA 252250Z AUTO 20009KT 9999 FEW250/// 05/02 Q1018 NOSIG